createdAt,value
2018-01-18T00:00:03.549Z,1001.91
2018-01-18T00:01:03.502Z,1001.91
2018-01-18T00:02:03.452Z,1001.83
2018-01-18T00:03:03.402Z,1001.86
2018-01-18T00:04:03.354Z,1001.85
2018-01-18T00:05:03.305Z,1001.90
2018-01-18T00:06:03.254Z,1001.89
2018-01-18T00:07:03.203Z,1001.96
2018-01-18T00:08:03.158Z,1001.97
2018-01-18T00:09:03.109Z,1001.93
2018-01-18T00:10:03.061Z,1001.80
2018-01-18T00:11:03.017Z,1001.87
2018-01-18T00:12:02.961Z,1001.88
2018-01-18T00:13:02.917Z,1001.84
2018-01-18T00:14:02.864Z,1001.86
2018-01-18T00:15:02.815Z,1001.84
2018-01-18T00:16:02.767Z,1001.75
2018-01-18T00:17:02.717Z,1001.71
2018-01-18T00:18:02.671Z,1001.73
2018-01-18T00:19:02.618Z,1001.72
2018-01-18T00:20:02.568Z,1001.78
2018-01-18T00:21:02.522Z,1001.66
2018-01-18T00:22:02.474Z,1001.77
2018-01-18T00:23:02.425Z,1001.74
2018-01-18T00:24:02.375Z,1001.70
2018-01-18T00:25:02.326Z,1001.66
2018-01-18T00:26:02.282Z,1001.59
2018-01-18T00:27:02.229Z,1001.66
2018-01-18T00:28:02.183Z,1001.56
2018-01-18T00:29:02.132Z,1001.54
2018-01-18T00:30:02.082Z,1001.46
2018-01-18T00:31:02.034Z,1001.45
2018-01-18T00:32:01.986Z,1001.46
2018-01-18T00:33:01.936Z,1001.33
2018-01-18T00:34:01.889Z,1001.26
2018-01-18T00:35:01.839Z,1001.27
2018-01-18T00:36:01.791Z,1001.44
2018-01-18T00:37:01.745Z,1001.34
2018-01-18T00:38:01.695Z,1001.31
2018-01-18T00:39:01.641Z,1001.32
2018-01-18T00:40:01.596Z,1001.32
2018-01-18T00:41:01.550Z,1001.41
2018-01-18T00:42:01.498Z,1001.36
2018-01-18T00:43:01.451Z,1001.34
2018-01-18T00:44:01.400Z,1001.42
2018-01-18T00:45:01.360Z,1001.35
2018-01-18T00:46:01.302Z,1001.32
2018-01-18T00:47:01.250Z,1001.38
2018-01-18T00:48:01.203Z,1001.21
2018-01-18T00:49:01.154Z,1001.19
2018-01-18T00:50:01.107Z,1001.19
2018-01-18T00:51:01.058Z,1001.16
2018-01-18T00:52:01.081Z,1001.08
2018-01-18T00:53:00.958Z,1001.13
2018-01-18T00:54:00.915Z,1001.10
2018-01-18T00:55:00.863Z,1001.11
2018-01-18T00:56:00.813Z,1001.06
2018-01-18T00:57:00.768Z,1000.94
2018-01-18T00:58:00.716Z,1000.85
2018-01-18T00:59:00.667Z,1000.80
2018-01-18T01:00:00.615Z,1000.81
2018-01-18T01:01:00.571Z,1000.83
2018-01-18T01:02:00.521Z,1000.82
2018-01-18T01:03:00.473Z,1000.82
2018-01-18T01:04:00.423Z,1000.73
2018-01-18T01:05:00.373Z,1000.69
2018-01-18T01:06:00.325Z,1000.66
2018-01-18T01:07:00.280Z,1000.63
2018-01-18T01:08:00.228Z,1000.63
2018-01-18T01:09:00.179Z,1000.55
2018-01-18T01:10:00.132Z,1000.45
2018-01-18T01:11:00.080Z,1000.45
2018-01-18T01:12:00.037Z,1000.45
2018-01-18T01:12:59.985Z,1000.37
2018-01-18T01:13:59.936Z,1000.29
2018-01-18T01:14:59.888Z,1000.37
2018-01-18T01:15:59.838Z,1000.29
2018-01-18T01:16:59.790Z,1000.27
2018-01-18T01:17:59.740Z,1000.23
2018-01-18T01:18:59.694Z,1000.20
2018-01-18T01:19:59.646Z,1000.25
2018-01-18T01:20:59.598Z,1000.19
2018-01-18T01:21:59.545Z,1000.18
2018-01-18T01:22:59.497Z,1000.16
2018-01-18T01:23:59.449Z,1000.12
2018-01-18T01:24:59.399Z,1000.24
2018-01-18T01:25:59.406Z,1000.15
2018-01-18T01:26:59.301Z,1000.16
2018-01-18T01:27:59.256Z,1000.06
2018-01-18T01:28:59.204Z,1000.19
2018-01-18T01:29:59.156Z,1000.23
2018-01-18T01:30:59.107Z,1000.20
2018-01-18T01:31:59.058Z,1000.21
2018-01-18T01:32:59.009Z,1000.13
2018-01-18T01:33:58.961Z,1000.12
2018-01-18T01:34:58.911Z,1000.17
2018-01-18T01:35:58.863Z,1000.15
2018-01-18T01:36:58.814Z,1000.12
2018-01-18T01:37:58.797Z,1000.05
2018-01-18T01:38:58.719Z,1000.06
2018-01-18T01:39:58.672Z,1000.05
2018-01-18T01:40:58.622Z,1000.01
2018-01-18T01:41:58.574Z,999.94
2018-01-18T01:42:58.526Z,999.88
2018-01-18T01:43:58.475Z,999.82
2018-01-18T01:44:58.428Z,999.78
2018-01-18T01:45:58.377Z,999.75
2018-01-18T01:46:58.327Z,999.66
2018-01-18T01:47:58.284Z,999.60
2018-01-18T01:48:58.233Z,999.54
2018-01-18T01:49:58.187Z,999.46
2018-01-18T01:50:58.133Z,999.44
2018-01-18T01:51:58.087Z,999.34
2018-01-18T01:52:58.034Z,999.27
2018-01-18T01:53:57.992Z,999.31
2018-01-18T01:54:57.944Z,999.29
2018-01-18T01:55:57.890Z,999.21
2018-01-18T01:56:57.843Z,999.20
2018-01-18T01:57:57.791Z,999.21
2018-01-18T01:58:57.747Z,999.17
2018-01-18T01:59:57.700Z,999.17
2018-01-18T02:00:57.653Z,999.18
2018-01-18T02:01:57.601Z,999.23
2018-01-18T02:02:57.555Z,999.17
2018-01-18T02:03:57.506Z,999.15
2018-01-18T02:04:57.454Z,999.17
2018-01-18T02:05:57.405Z,999.12
2018-01-18T02:06:57.362Z,999.10
2018-01-18T02:07:57.311Z,999.06
2018-01-18T02:08:57.263Z,999.04
2018-01-18T02:09:57.214Z,998.99
2018-01-18T02:10:57.162Z,998.98
2018-01-18T02:11:57.112Z,998.97
2018-01-18T02:12:57.066Z,998.94
2018-01-18T02:13:57.016Z,998.94
2018-01-18T02:14:56.969Z,998.87
2018-01-18T02:15:56.919Z,998.87
2018-01-18T02:16:56.869Z,998.81
2018-01-18T02:17:56.826Z,998.75
2018-01-18T02:18:56.774Z,998.64
2018-01-18T02:19:56.725Z,998.64
2018-01-18T02:20:56.674Z,998.59
2018-01-18T02:21:56.640Z,998.53
2018-01-18T02:22:56.579Z,998.52
2018-01-18T02:23:56.528Z,998.46
2018-01-18T02:24:56.480Z,998.45
2018-01-18T02:25:56.432Z,998.43
2018-01-18T02:26:56.386Z,998.35
2018-01-18T02:27:56.335Z,998.35
2018-01-18T02:28:56.288Z,998.27
2018-01-18T02:29:56.239Z,998.23
2018-01-18T02:30:56.192Z,998.14
2018-01-18T02:31:56.140Z,998.12
2018-01-18T02:32:56.091Z,998.03
2018-01-18T02:33:56.047Z,998.08
2018-01-18T02:34:55.993Z,998.03
2018-01-18T02:35:55.993Z,998.02
2018-01-18T02:36:55.901Z,998.05
2018-01-18T02:37:55.847Z,998.06
2018-01-18T02:38:55.800Z,997.98
2018-01-18T02:39:55.750Z,998.01
2018-01-18T02:40:55.702Z,997.98
2018-01-18T02:41:55.654Z,997.92
2018-01-18T02:42:55.604Z,997.90
2018-01-18T02:43:55.556Z,997.86
2018-01-18T02:44:55.507Z,997.76
2018-01-18T02:45:55.461Z,997.66
2018-01-18T02:46:55.419Z,997.50
2018-01-18T02:47:55.360Z,997.48
2018-01-18T02:48:55.318Z,997.53
2018-01-18T02:49:55.268Z,997.45
2018-01-18T02:50:55.214Z,997.55
2018-01-18T02:51:55.167Z,997.56
2018-01-18T02:52:55.118Z,997.53
2018-01-18T02:53:55.076Z,997.43
2018-01-18T02:54:55.020Z,997.32
2018-01-18T02:55:54.971Z,997.30
2018-01-18T02:56:54.923Z,997.24
2018-01-18T02:57:54.875Z,997.06
2018-01-18T02:58:54.825Z,997.25
2018-01-18T02:59:54.778Z,997.24
2018-01-18T03:00:54.729Z,997.03
2018-01-18T03:01:54.684Z,997.08
2018-01-18T03:02:54.631Z,997.00
2018-01-18T03:03:54.583Z,996.99
2018-01-18T03:04:54.538Z,996.95
2018-01-18T03:05:54.485Z,996.92
2018-01-18T03:06:54.437Z,996.86
2018-01-18T03:07:54.388Z,996.76
2018-01-18T03:08:54.340Z,996.66
2018-01-18T03:09:54.293Z,996.65
2018-01-18T03:10:54.241Z,996.69
2018-01-18T03:11:54.193Z,996.61
2018-01-18T03:12:54.144Z,996.60
2018-01-18T03:13:54.098Z,996.57
2018-01-18T03:14:54.048Z,996.31
2018-01-18T03:15:54.000Z,996.34
2018-01-18T03:16:53.953Z,996.31
2018-01-18T03:17:53.903Z,996.17
2018-01-18T03:18:53.855Z,996.11
2018-01-18T03:19:53.809Z,996.16
2018-01-18T03:20:53.756Z,996.11
2018-01-18T03:21:53.711Z,996.14
2018-01-18T03:22:53.659Z,996.03
2018-01-18T03:23:53.612Z,996.04
2018-01-18T03:24:53.562Z,996.11
2018-01-18T03:25:53.517Z,996.02
2018-01-18T03:26:53.471Z,995.86
2018-01-18T03:27:53.422Z,995.83
2018-01-18T03:28:53.369Z,995.73
2018-01-18T03:29:53.317Z,995.72
2018-01-18T03:30:53.269Z,995.54
2018-01-18T03:31:53.224Z,995.53
2018-01-18T03:32:53.173Z,995.46
2018-01-18T03:33:53.126Z,995.40
2018-01-18T03:34:53.083Z,995.33
2018-01-18T03:35:53.029Z,995.29
2018-01-18T03:36:52.980Z,995.24
2018-01-18T03:37:52.931Z,995.29
2018-01-18T03:38:52.882Z,995.25
2018-01-18T03:39:52.835Z,995.07
2018-01-18T03:40:52.790Z,995.01
2018-01-18T03:41:52.734Z,994.94
2018-01-18T03:42:52.688Z,994.89
2018-01-18T03:43:52.637Z,994.78
2018-01-18T03:44:52.590Z,994.80
2018-01-18T03:45:52.545Z,994.66
2018-01-18T03:46:52.493Z,994.69
2018-01-18T03:47:52.444Z,994.51
2018-01-18T03:48:52.394Z,994.47
2018-01-18T03:49:52.348Z,994.41
2018-01-18T03:50:52.298Z,994.31
2018-01-18T03:51:52.246Z,994.32
2018-01-18T03:52:52.202Z,994.22
2018-01-18T03:53:52.158Z,994.11
2018-01-18T03:54:52.104Z,994.12
2018-01-18T03:55:52.053Z,994.03
2018-01-18T03:56:52.007Z,994.00
2018-01-18T03:57:51.956Z,993.89
2018-01-18T03:58:51.906Z,993.86
2018-01-18T03:59:51.858Z,993.75
2018-01-18T04:00:51.808Z,993.68
2018-01-18T04:01:51.759Z,993.73
2018-01-18T04:02:51.711Z,993.69
2018-01-18T04:03:51.662Z,993.52
2018-01-18T04:04:51.618Z,993.41
2018-01-18T04:05:51.566Z,993.31
2018-01-18T04:06:51.516Z,993.28
2018-01-18T04:07:51.467Z,993.32
2018-01-18T04:08:51.417Z,993.27
2018-01-18T04:09:51.366Z,993.24
2018-01-18T04:10:51.320Z,993.22
2018-01-18T04:11:51.271Z,993.34
2018-01-18T04:12:51.221Z,993.18
2018-01-18T04:13:51.173Z,993.02
2018-01-18T04:14:51.126Z,993.03
2018-01-18T04:15:51.075Z,992.97
2018-01-18T04:16:51.024Z,992.78
2018-01-18T04:17:50.977Z,992.74
2018-01-18T04:18:50.925Z,992.62
2018-01-18T04:19:50.879Z,992.59
2018-01-18T04:20:50.826Z,992.52
2018-01-18T04:21:50.785Z,992.35
2018-01-18T04:22:50.730Z,992.36
2018-01-18T04:23:50.678Z,992.25
2018-01-18T04:24:50.632Z,992.23
2018-01-18T04:25:50.583Z,992.28
2018-01-18T04:26:50.533Z,992.15
2018-01-18T04:27:50.483Z,992.17
2018-01-18T04:28:50.438Z,992.15
2018-01-18T04:29:50.388Z,991.95
2018-01-18T04:30:50.336Z,992.01
2018-01-18T04:31:50.287Z,991.93
2018-01-18T04:32:50.244Z,991.76
2018-01-18T04:33:50.189Z,991.71
2018-01-18T04:34:50.137Z,991.74
2018-01-18T04:35:50.090Z,991.57
2018-01-18T04:36:50.041Z,991.55
2018-01-18T04:37:49.992Z,991.50
2018-01-18T04:38:49.940Z,991.37
2018-01-18T04:39:49.890Z,991.34
2018-01-18T04:40:49.843Z,991.18
2018-01-18T04:41:49.792Z,991.18
2018-01-18T04:42:49.741Z,991.19
2018-01-18T04:43:49.692Z,991.12
2018-01-18T04:44:49.645Z,991.06
2018-01-18T04:45:49.596Z,991.04
2018-01-18T04:46:49.545Z,991.25
2018-01-18T04:47:49.494Z,991.09
2018-01-18T04:48:49.446Z,990.81
2018-01-18T04:49:49.399Z,990.80
2018-01-18T04:50:49.354Z,990.89
2018-01-18T04:51:49.298Z,990.71
2018-01-18T04:52:49.246Z,990.64
2018-01-18T04:53:49.199Z,990.77
2018-01-18T04:54:49.150Z,990.66
2018-01-18T04:55:49.098Z,990.52
2018-01-18T04:56:49.051Z,990.46
2018-01-18T04:57:48.998Z,990.50
2018-01-18T04:58:48.953Z,990.46
2018-01-18T04:59:48.899Z,990.40
2018-01-18T05:00:48.851Z,990.50
2018-01-18T05:01:48.801Z,990.47
2018-01-18T05:02:48.753Z,990.26
2018-01-18T05:03:48.708Z,990.31
2018-01-18T05:04:48.657Z,990.26
2018-01-18T05:05:48.618Z,990.18
2018-01-18T05:06:48.559Z,990.14
2018-01-18T05:07:48.506Z,990.13
2018-01-18T05:08:48.458Z,990.05
2018-01-18T05:09:48.403Z,990.00
2018-01-18T05:10:48.354Z,989.96
2018-01-18T05:11:48.308Z,989.71
2018-01-18T05:12:48.257Z,989.56
2018-01-18T05:13:48.205Z,989.50
2018-01-18T05:14:48.153Z,989.46
2018-01-18T05:15:48.110Z,989.49
2018-01-18T05:16:48.060Z,989.45
2018-01-18T05:17:48.008Z,989.42
2018-01-18T05:18:47.956Z,989.49
2018-01-18T05:19:47.909Z,989.42
2018-01-18T05:20:47.858Z,989.30
2018-01-18T05:21:47.811Z,989.40
2018-01-18T05:22:47.758Z,989.44
2018-01-18T05:23:47.706Z,989.27
2018-01-18T05:24:47.659Z,989.30
2018-01-18T05:25:47.607Z,989.23
2018-01-18T05:26:47.566Z,989.09
2018-01-18T05:27:47.521Z,989.01
2018-01-18T05:28:47.464Z,988.99
2018-01-18T05:29:47.416Z,988.68
2018-01-18T05:30:47.359Z,988.80
2018-01-18T05:31:47.328Z,988.70
2018-01-18T05:32:47.265Z,988.74
2018-01-18T05:33:47.219Z,988.65
2018-01-18T05:34:47.163Z,988.57
2018-01-18T05:35:47.118Z,988.73
2018-01-18T05:36:47.070Z,988.64
2018-01-18T05:37:47.014Z,988.64
2018-01-18T05:38:46.965Z,988.54
2018-01-18T05:39:46.919Z,988.44
2018-01-18T05:40:46.866Z,988.50
2018-01-18T05:41:46.817Z,988.41
2018-01-18T05:42:46.771Z,988.31
2018-01-18T05:43:46.719Z,988.31
2018-01-18T05:44:46.667Z,988.17
2018-01-18T05:45:46.619Z,988.17
2018-01-18T05:46:46.576Z,988.03
2018-01-18T05:47:46.517Z,988.10
2018-01-18T05:48:46.472Z,988.20
2018-01-18T05:49:46.421Z,988.18
2018-01-18T05:50:46.375Z,988.29
2018-01-18T05:51:46.325Z,987.97
2018-01-18T05:52:46.274Z,987.94
2018-01-18T05:53:46.224Z,988.11
2018-01-18T05:54:46.175Z,988.00
2018-01-18T05:55:46.121Z,987.99
2018-01-18T05:56:46.075Z,988.02
2018-01-18T05:57:46.023Z,987.94
2018-01-18T05:58:46.025Z,987.95
2018-01-18T05:59:45.926Z,987.95
2018-01-18T06:00:45.875Z,987.85
2018-01-18T06:01:45.827Z,987.59
2018-01-18T06:02:49.077Z,987.51
2018-01-18T06:03:45.733Z,987.33
2018-01-18T06:04:45.679Z,987.55
2018-01-18T06:05:45.628Z,987.59
2018-01-18T06:06:45.581Z,987.66
2018-01-18T06:07:45.529Z,987.67
2018-01-18T06:08:45.480Z,987.51
2018-01-18T06:09:45.439Z,987.49
2018-01-18T06:10:45.393Z,987.28
2018-01-18T06:11:45.337Z,987.23
2018-01-18T06:12:45.288Z,987.06
2018-01-18T06:13:45.245Z,987.10
2018-01-18T06:14:45.187Z,987.09
2018-01-18T06:15:45.134Z,987.04
2018-01-18T06:16:45.088Z,987.05
2018-01-18T06:17:45.038Z,987.14
2018-01-18T06:18:44.993Z,986.96
2018-01-18T06:19:44.943Z,986.80
2018-01-18T06:20:44.892Z,986.80
2018-01-18T06:21:44.847Z,986.66
2018-01-18T06:22:44.792Z,986.61
2018-01-18T06:23:44.749Z,986.64
2018-01-18T06:24:44.695Z,986.59
2018-01-18T06:25:44.650Z,986.55
2018-01-18T06:26:44.597Z,986.65
2018-01-18T06:27:44.550Z,986.49
2018-01-18T06:28:44.498Z,986.53
2018-01-18T06:29:44.451Z,986.55
2018-01-18T06:30:44.401Z,986.57
2018-01-18T06:31:44.352Z,986.31
2018-01-18T06:32:44.307Z,986.35
2018-01-18T06:33:44.256Z,986.30
2018-01-18T06:34:44.207Z,986.35
2018-01-18T06:35:44.160Z,986.37
2018-01-18T06:36:44.111Z,986.30
2018-01-18T06:37:44.065Z,986.24
2018-01-18T06:38:44.012Z,986.32
2018-01-18T06:39:43.967Z,986.27
2018-01-18T06:40:43.913Z,986.14
2018-01-18T06:41:43.869Z,986.14
2018-01-18T06:42:43.818Z,986.29
2018-01-18T06:43:43.768Z,986.36
2018-01-18T06:44:43.723Z,986.23
2018-01-18T06:45:43.676Z,986.02
2018-01-18T06:46:43.622Z,986.27
2018-01-18T06:47:43.576Z,986.07
2018-01-18T06:48:43.527Z,986.00
2018-01-18T06:49:43.482Z,985.93
2018-01-18T06:50:43.434Z,986.01
2018-01-18T06:51:43.420Z,985.80
2018-01-18T06:52:43.341Z,985.73
2018-01-18T06:53:43.286Z,985.74
2018-01-18T06:54:43.240Z,985.89
2018-01-18T06:55:43.190Z,985.91
2018-01-18T06:56:43.144Z,985.72
2018-01-18T06:57:43.092Z,985.79
2018-01-18T06:58:43.043Z,985.88
2018-01-18T06:59:43.002Z,985.71
2018-01-18T07:00:42.950Z,985.87
2018-01-18T07:01:42.900Z,985.89
2018-01-18T07:02:42.851Z,985.89
2018-01-18T07:03:42.804Z,985.91
2018-01-18T07:04:42.765Z,985.86
2018-01-18T07:05:42.716Z,985.76
2018-01-18T07:06:42.661Z,985.76
2018-01-18T07:07:42.614Z,985.83
2018-01-18T07:08:42.564Z,985.79
2018-01-18T07:09:42.516Z,985.58
2018-01-18T07:10:42.467Z,985.62
2018-01-18T07:11:42.425Z,985.61
2018-01-18T07:12:42.375Z,985.52
2018-01-18T07:13:42.329Z,985.48
2018-01-18T07:14:42.275Z,985.49
2018-01-18T07:15:42.230Z,985.65
2018-01-18T07:16:42.180Z,985.56
2018-01-18T07:17:42.134Z,985.50
2018-01-18T07:18:42.090Z,985.31
2018-01-18T07:19:42.039Z,985.50
2018-01-18T07:20:41.995Z,985.34
2018-01-18T07:21:41.948Z,985.15
2018-01-18T07:22:41.905Z,985.25
2018-01-18T07:23:41.848Z,985.06
2018-01-18T07:24:41.798Z,985.16
2018-01-18T07:25:41.752Z,985.09
2018-01-18T07:26:41.701Z,985.07
2018-01-18T07:27:41.661Z,985.04
2018-01-18T07:28:41.608Z,985.06
2018-01-18T07:29:41.565Z,984.87
2018-01-18T07:30:41.510Z,985.15
2018-01-18T07:31:41.467Z,984.86
2018-01-18T07:32:41.417Z,984.93
2018-01-18T07:33:41.369Z,984.77
2018-01-18T07:34:41.321Z,984.94
2018-01-18T07:35:41.273Z,984.87
2018-01-18T07:36:41.228Z,984.78
2018-01-18T07:37:41.179Z,984.87
2018-01-18T07:38:41.132Z,984.93
2018-01-18T07:39:41.082Z,984.89
2018-01-18T07:40:41.033Z,984.91
2018-01-18T07:41:40.991Z,984.75
2018-01-18T07:42:40.942Z,984.77
2018-01-18T07:43:40.891Z,984.52
2018-01-18T07:44:40.846Z,984.55
2018-01-18T07:45:40.800Z,984.64
2018-01-18T07:46:40.750Z,984.70
2018-01-18T07:47:40.702Z,984.68
2018-01-18T07:48:40.655Z,984.60
2018-01-18T07:49:40.608Z,984.53
2018-01-18T07:50:40.560Z,984.65
2018-01-18T07:51:40.511Z,984.59
2018-01-18T07:52:40.466Z,984.50
2018-01-18T07:53:40.418Z,984.48
2018-01-18T07:54:40.369Z,984.45
2018-01-18T07:55:40.325Z,984.54
2018-01-18T07:56:40.284Z,984.54
2018-01-18T07:57:40.230Z,984.51
2018-01-18T07:58:40.180Z,984.52
2018-01-18T07:59:40.136Z,984.41
2018-01-18T08:00:40.096Z,984.41
2018-01-18T08:01:40.041Z,984.42
2018-01-18T08:02:39.997Z,984.43
2018-01-18T08:03:39.944Z,984.33
2018-01-18T08:04:39.897Z,984.45
2018-01-18T08:05:39.850Z,984.52
2018-01-18T08:06:39.803Z,984.40
2018-01-18T08:07:39.758Z,984.37
2018-01-18T08:08:39.714Z,984.34
2018-01-18T08:09:39.706Z,984.49
2018-01-18T08:10:39.616Z,984.37
2018-01-18T08:11:39.576Z,984.24
2018-01-18T08:12:39.523Z,983.96
2018-01-18T08:13:39.476Z,984.26
2018-01-18T08:14:39.431Z,984.08
2018-01-18T08:15:39.380Z,984.17
2018-01-18T08:16:39.338Z,984.09
2018-01-18T08:17:39.305Z,984.15
2018-01-18T08:18:39.238Z,983.75
2018-01-18T08:19:39.191Z,984.17
2018-01-18T08:20:39.152Z,984.17
2018-01-18T08:21:39.097Z,984.01
2018-01-18T08:22:39.051Z,983.98
2018-01-18T08:23:39.005Z,984.17
2018-01-18T08:24:38.962Z,983.94
2018-01-18T08:25:38.910Z,984.28
2018-01-18T08:26:38.868Z,983.92
2018-01-18T08:27:38.818Z,983.95
2018-01-18T08:28:38.772Z,984.02
2018-01-18T08:29:38.726Z,984.04
2018-01-18T08:30:38.678Z,983.92
2018-01-18T08:31:38.635Z,984.08
2018-01-18T08:32:38.588Z,984.11
2018-01-18T08:33:38.538Z,984.11
2018-01-18T08:34:38.490Z,983.85
2018-01-18T08:35:38.445Z,984.02
2018-01-18T08:36:38.398Z,983.86
2018-01-18T08:37:38.353Z,983.95
2018-01-18T08:38:38.305Z,984.06
2018-01-18T08:39:38.261Z,984.18
2018-01-18T08:40:38.217Z,984.03
2018-01-18T08:41:38.166Z,983.94
2018-01-18T08:42:38.120Z,983.82
2018-01-18T08:43:38.079Z,983.71
2018-01-18T08:44:38.028Z,983.84
2018-01-18T08:45:37.984Z,983.97
2018-01-18T08:46:37.937Z,983.90
2018-01-18T08:47:37.892Z,983.85
2018-01-18T08:48:37.844Z,983.85
2018-01-18T08:49:37.804Z,983.90
2018-01-18T08:50:37.750Z,983.98
2018-01-18T08:51:37.706Z,983.72
2018-01-18T08:52:37.663Z,983.73
2018-01-18T08:53:37.614Z,983.89
2018-01-18T08:54:37.566Z,983.75
2018-01-18T08:55:37.521Z,983.64
2018-01-18T08:56:37.476Z,983.82
2018-01-18T08:57:37.430Z,983.79
2018-01-18T08:58:37.387Z,983.98
2018-01-18T08:59:37.333Z,983.83
2018-01-18T09:00:37.289Z,983.79
2018-01-18T09:01:37.244Z,983.77
2018-01-18T09:02:37.197Z,983.79
2018-01-18T09:03:37.157Z,983.65
2018-01-18T09:04:37.107Z,983.74
2018-01-18T09:05:37.059Z,983.72
2018-01-18T09:06:37.014Z,983.68
2018-01-18T09:07:36.969Z,983.72
2018-01-18T09:08:36.929Z,983.92
2018-01-18T09:09:36.875Z,983.93
2018-01-18T09:10:36.833Z,983.81
2018-01-18T09:11:36.787Z,983.83
2018-01-18T09:12:36.742Z,984.18
2018-01-18T09:13:36.694Z,984.05
2018-01-18T09:14:36.646Z,983.99
2018-01-18T09:15:36.600Z,984.07
2018-01-18T09:16:36.559Z,984.05
2018-01-18T09:17:36.512Z,984.10
2018-01-18T09:18:36.464Z,984.08
2018-01-18T09:19:36.417Z,983.98
2018-01-18T09:20:36.375Z,983.72
2018-01-18T09:21:36.328Z,984.06
2018-01-18T09:22:36.283Z,984.07
2018-01-18T09:23:36.236Z,983.83
2018-01-18T09:24:36.191Z,983.77
2018-01-18T09:25:36.145Z,984.46
2018-01-18T09:26:36.096Z,984.10
2018-01-18T09:27:36.051Z,984.27
2018-01-18T09:28:36.006Z,984.18
2018-01-18T09:29:35.963Z,984.22
2018-01-18T09:30:35.918Z,984.17
2018-01-18T09:31:35.876Z,984.20
2018-01-18T09:32:35.825Z,984.32
2018-01-18T09:33:35.779Z,984.41
2018-01-18T09:34:35.734Z,984.29
2018-01-18T09:35:35.690Z,984.38
2018-01-18T09:36:35.640Z,984.55
2018-01-18T09:37:35.597Z,984.49
2018-01-18T09:38:35.550Z,984.37
2018-01-18T09:39:35.509Z,984.65
2018-01-18T09:40:35.463Z,984.51
2018-01-18T09:41:35.428Z,984.62
2018-01-18T09:42:35.371Z,984.89
2018-01-18T09:43:35.324Z,984.86
2018-01-18T09:44:35.279Z,984.78
2018-01-18T09:45:35.231Z,985.04
2018-01-18T09:46:35.184Z,985.27
2018-01-18T09:47:35.143Z,985.16
2018-01-18T09:48:35.094Z,985.49
2018-01-18T09:49:35.050Z,985.17
2018-01-18T09:50:35.002Z,985.58
2018-01-18T09:51:34.958Z,985.47
2018-01-18T09:52:34.914Z,985.71
2018-01-18T09:53:34.867Z,985.20
2018-01-18T09:54:34.822Z,985.39
2018-01-18T09:55:34.782Z,985.46
2018-01-18T09:56:34.735Z,985.32
2018-01-18T09:57:34.690Z,985.74
2018-01-18T09:58:34.640Z,985.51
2018-01-18T09:59:34.597Z,985.77
2018-01-18T10:00:34.551Z,985.70
2018-01-18T10:01:34.505Z,985.10
2018-01-18T10:02:34.456Z,985.67
2018-01-18T10:03:34.417Z,985.52
2018-01-18T10:04:34.365Z,985.45
2018-01-18T10:05:34.325Z,985.43
2018-01-18T10:06:34.275Z,985.77
2018-01-18T10:07:34.271Z,985.58
2018-01-18T10:08:34.182Z,985.62
2018-01-18T10:09:34.138Z,985.92
2018-01-18T10:10:34.095Z,986.06
2018-01-18T10:11:34.045Z,986.28
2018-01-18T10:12:34.002Z,986.37
2018-01-18T10:13:33.954Z,986.18
2018-01-18T10:14:33.908Z,986.24
2018-01-18T10:15:33.866Z,986.15
2018-01-18T10:16:33.818Z,986.21
2018-01-18T10:17:33.774Z,986.60
2018-01-18T10:18:33.725Z,986.31
2018-01-18T10:19:33.680Z,986.65
2018-01-18T10:20:33.634Z,986.31
2018-01-18T10:21:33.589Z,987.05
2018-01-18T10:22:33.541Z,986.58
2018-01-18T10:23:33.496Z,987.07
2018-01-18T10:24:33.448Z,986.88
2018-01-18T10:25:33.406Z,987.55
2018-01-18T10:26:33.362Z,987.09
2018-01-18T10:27:33.316Z,986.97
2018-01-18T10:28:33.268Z,987.27
2018-01-18T10:29:33.221Z,987.15
2018-01-18T10:30:33.175Z,987.52
2018-01-18T10:31:33.163Z,987.09
2018-01-18T10:32:33.081Z,987.40
2018-01-18T10:33:33.038Z,987.09
2018-01-18T10:34:32.991Z,987.28
2018-01-18T10:35:32.943Z,987.03
2018-01-18T10:36:32.895Z,987.30
2018-01-18T10:37:32.851Z,987.38
2018-01-18T10:38:32.807Z,987.39
2018-01-18T10:39:32.761Z,987.62
2018-01-18T10:40:32.714Z,987.39
2018-01-18T10:41:32.665Z,987.82
2018-01-18T10:42:32.618Z,987.61
2018-01-18T10:43:32.574Z,987.82
2018-01-18T10:44:32.526Z,987.80
2018-01-18T10:45:32.483Z,987.60
2018-01-18T10:46:32.432Z,987.94
2018-01-18T10:47:32.388Z,987.99
2018-01-18T10:48:32.344Z,988.02
2018-01-18T10:49:32.300Z,988.41
2018-01-18T10:50:32.246Z,988.00
2018-01-18T10:51:32.201Z,988.13
2018-01-18T10:52:32.152Z,988.29
2018-01-18T10:53:32.120Z,988.31
2018-01-18T10:54:32.060Z,988.44
2018-01-18T10:55:32.058Z,988.48
2018-01-18T10:56:31.963Z,988.55
2018-01-18T10:57:31.922Z,988.78
2018-01-18T10:58:31.874Z,988.78
2018-01-18T10:59:31.827Z,988.72
2018-01-18T11:00:31.780Z,988.67
2018-01-18T11:01:31.730Z,989.24
2018-01-18T11:02:31.687Z,988.73
2018-01-18T11:03:31.639Z,988.78
2018-01-18T11:04:31.607Z,988.91
2018-01-18T11:05:31.616Z,989.17
2018-01-18T11:06:31.498Z,989.21
2018-01-18T11:07:31.499Z,989.09
2018-01-18T11:08:31.402Z,989.10
2018-01-18T11:09:31.359Z,989.45
2018-01-18T11:10:31.312Z,989.49
2018-01-18T11:11:31.279Z,989.22
2018-01-18T11:12:31.217Z,989.49
2018-01-18T11:13:31.170Z,989.43
2018-01-18T11:14:31.123Z,989.58
2018-01-18T11:15:31.075Z,989.45
2018-01-18T11:16:31.028Z,989.53
2018-01-18T11:17:30.980Z,989.59
2018-01-18T11:18:30.932Z,989.59
2018-01-18T11:19:30.890Z,989.60
2018-01-18T11:20:30.866Z,989.63
2018-01-18T11:21:30.792Z,989.92
2018-01-18T11:22:30.748Z,989.90
2018-01-18T11:23:30.696Z,989.99
2018-01-18T11:24:30.651Z,990.04
2018-01-18T11:25:30.607Z,990.13
2018-01-18T11:26:30.562Z,990.07
2018-01-18T11:27:30.531Z,990.25
2018-01-18T11:28:30.465Z,990.35
2018-01-18T11:29:30.416Z,990.30
2018-01-18T11:30:30.367Z,990.38
2018-01-18T11:31:30.322Z,990.72
2018-01-18T11:32:30.274Z,990.61
2018-01-18T11:33:30.234Z,990.28
2018-01-18T11:34:30.180Z,990.78
2018-01-18T11:35:30.137Z,990.47
2018-01-18T11:36:30.093Z,990.60
2018-01-18T11:37:30.039Z,990.66
2018-01-18T11:38:29.992Z,990.64
2018-01-18T11:39:29.948Z,990.84
2018-01-18T11:40:29.895Z,990.72
2018-01-18T11:41:29.848Z,990.92
2018-01-18T11:42:29.805Z,991.13
2018-01-18T11:43:29.755Z,991.49
2018-01-18T11:44:29.709Z,991.29
2018-01-18T11:45:29.666Z,991.16
2018-01-18T11:46:29.613Z,991.17
2018-01-18T11:47:29.567Z,991.34
2018-01-18T11:48:29.518Z,991.51
2018-01-18T11:49:29.474Z,991.62
2018-01-18T11:50:29.427Z,991.31
2018-01-18T11:51:29.425Z,991.53
2018-01-18T11:52:29.331Z,991.77
2018-01-18T11:53:29.283Z,991.68
2018-01-18T11:54:29.237Z,991.70
2018-01-18T11:55:29.192Z,991.80
2018-01-18T11:56:29.144Z,991.72
2018-01-18T11:57:29.094Z,991.79
2018-01-18T11:58:29.045Z,991.79
2018-01-18T11:59:29.006Z,991.83
2018-01-18T12:00:28.951Z,991.98
2018-01-18T12:01:28.910Z,992.14
2018-01-18T12:02:28.856Z,991.97
2018-01-18T12:03:28.812Z,992.14
2018-01-18T12:04:28.765Z,992.09
2018-01-18T12:05:28.715Z,992.00
2018-01-18T12:06:28.672Z,992.08
2018-01-18T12:07:28.622Z,992.13
2018-01-18T12:08:28.575Z,992.09
2018-01-18T12:09:28.524Z,992.04
2018-01-18T12:10:28.479Z,992.29
2018-01-18T12:11:28.438Z,992.18
2018-01-18T12:12:28.382Z,992.11
2018-01-18T12:13:28.341Z,992.22
2018-01-18T12:14:28.289Z,992.21
2018-01-18T12:15:28.243Z,992.33
2018-01-18T12:16:28.194Z,992.35
2018-01-18T12:17:28.147Z,992.45
2018-01-18T12:18:28.101Z,992.55
2018-01-18T12:19:28.054Z,992.52
2018-01-18T12:20:28.008Z,992.46
2018-01-18T12:21:27.959Z,992.55
2018-01-18T12:22:27.911Z,992.71
2018-01-18T12:23:27.867Z,992.58
2018-01-18T12:24:27.815Z,992.78